sensor_id;sensor_type;location;lat;lon;timestamp;temperature;humidity
12971;DHT22;6550;48.650;8.774;2024-03-17T00:01:10;9.30;99.90
12971;DHT22;6550;48.650;8.774;2024-03-17T00:03:36;9.70;99.90
12971;DHT22;6550;48.650;8.774;2024-03-17T00:06:07;9.50;99.90
12971;DHT22;6550;48.650;8.774;2024-03-17T00:08:36;9.70;99.90
12971;DHT22;6550;48.650;8.774;2024-03-17T00:11:02;9.20;99.90
12971;DHT22;6550;48.650;8.774;2024-03-17T00:13:30;9.50;99.90
12971;DHT22;6550;48.650;8.774;2024-03-17T00:15:57;9.50;99.90
12971;DHT22;6550;48.650;8.774;2024-03-17T00:18:23;9.40;99.90
12971;DHT22;6550;48.650;8.774;2024-03-17T00:20:51;9.50;99.90
12971;DHT22;6550;48.650;8.774;2024-03-17T00:23:19;9.60;99.90
12971;DHT22;6550;48.650;8.774;2024-03-17T00:25:45;9.50;99.90
12971;DHT22;6550;48.650;8.774;2024-03-17T00:28:15;9.70;99.90
12971;DHT22;6550;48.650;8.774;2024-03-17T00:30:43;9.50;99.90
12971;DHT22;6550;48.650;8.774;2024-03-17T00:33:11;9.70;99.90
12971;DHT22;6550;48.650;8.774;2024-03-17T00:35:37;10.30;99.90
12971;DHT22;6550;48.650;8.774;2024-03-17T00:38:08;9.20;99.90
12971;DHT22;6550;48.650;8.774;2024-03-17T00:40:38;9.90;99.90
12971;DHT22;6550;48.650;8.774;2024-03-17T00:43:06;9.40;99.90
12971;DHT22;6550;48.650;8.774;2024-03-17T00:45:32;9.20;99.90
12971;DHT22;6550;48.650;8.774;2024-03-17T00:50:24;9.40;99.90
12971;DHT22;6550;48.650;8.774;2024-03-17T00:55:16;9.50;99.90
12971;DHT22;6550;48.650;8.774;2024-03-17T00:57:42;9.50;99.90
12971;DHT22;6550;48.650;8.774;2024-03-17T01:00:09;9.80;99.90
12971;DHT22;6550;48.650;8.774;2024-03-17T01:02:38;9.30;99.90
12971;DHT22;6550;48.650;8.774;2024-03-17T01:05:05;9.40;99.90
12971;DHT22;6550;48.650;8.774;2024-03-17T01:07:34;9.30;99.90
12971;DHT22;6550;48.650;8.774;2024-03-17T01:10:00;9.60;99.90
12971;DHT22;6550;48.650;8.774;2024-03-17T01:12:28;9.50;99.90
12971;DHT22;6550;48.650;8.774;2024-03-17T01:14:56;9.70;99.90
12971;DHT22;6550;48.650;8.774;2024-03-17T01:17:22;9.50;99.90
12971;DHT22;6550;48.650;8.774;2024-03-17T01:19:48;9.40;99.90
12971;DHT22;6550;48.650;8.774;2024-03-17T01:22:13;9.50;99.90
12971;DHT22;6550;48.650;8.774;2024-03-17T01:24:41;10.40;99.90
12971;DHT22;6550;48.650;8.774;2024-03-17T01:27:11;9.70;99.90
12971;DHT22;6550;48.650;8.774;2024-03-17T01:29:42;9.50;99.90
12971;DHT22;6550;48.650;8.774;2024-03-17T01:32:11;9.40;99.90
12971;DHT22;6550;48.650;8.774;2024-03-17T01:34:40;9.70;99.90
12971;DHT22;6550;48.650;8.774;2024-03-17T01:37:06;10.80;99.90
12971;DHT22;6550;48.650;8.774;2024-03-17T01:39:34;9.90;99.90
12971;DHT22;6550;48.650;8.774;2024-03-17T01:42:00;9.50;99.90
12971;DHT22;6550;48.650;8.774;2024-03-17T01:44:28;9.60;99.90
12971;DHT22;6550;48.650;8.774;2024-03-17T01:46:55;9.60;99.90
12971;DHT22;6550;48.650;8.774;2024-03-17T01:49:22;9.50;99.90
12971;DHT22;6550;48.650;8.774;2024-03-17T01:54:18;9.60;99.90
12971;DHT22;6550;48.650;8.774;2024-03-17T01:56:45;10.70;99.90
12971;DHT22;6550;48.650;8.774;2024-03-17T01:59:11;9.50;99.90
12971;DHT22;6550;48.650;8.774;2024-03-17T02:01:39;9.60;99.90
12971;DHT22;6550;48.650;8.774;2024-03-17T02:06:35;9.70;99.90
12971;DHT22;6550;48.650;8.774;2024-03-17T02:09:03;9.70;99.90
12971;DHT22;6550;48.650;8.774;2024-03-17T02:11:33;9.60;99.90
12971;DHT22;6550;48.650;8.774;2024-03-17T02:14:02;9.80;99.90
12971;DHT22;6550;48.650;8.774;2024-03-17T02:16:28;9.50;99.90
12971;DHT22;6550;48.650;8.774;2024-03-17T02:18:57;9.50;99.90
12971;DHT22;6550;48.650;8.774;2024-03-17T02:21:28;9.20;99.90
12971;DHT22;6550;48.650;8.774;2024-03-17T02:23:57;9.80;99.90
12971;DHT22;6550;48.650;8.774;2024-03-17T02:26:25;9.70;99.90
12971;DHT22;6550;48.650;8.774;2024-03-17T02:28:51;9.50;99.90
12971;DHT22;6550;48.650;8.774;2024-03-17T02:31:21;9.50;99.90
12971;DHT22;6550;48.650;8.774;2024-03-17T02:33:49;9.60;99.90
12971;DHT22;6550;48.650;8.774;2024-03-17T02:36:17;10.30;99.90
12971;DHT22;6550;48.650;8.774;2024-03-17T02:38:43;9.20;99.90
12971;DHT22;6550;48.650;8.774;2024-03-17T02:41:30;9.40;99.90
12971;DHT22;6550;48.650;8.774;2024-03-17T02:46:22;9.30;99.90
12971;DHT22;6550;48.650;8.774;2024-03-17T02:48:55;9.70;99.90
12971;DHT22;6550;48.650;8.774;2024-03-17T02:51:23;9.40;99.90
12971;DHT22;6550;48.650;8.774;2024-03-17T02:53:50;9.70;99.90
12971;DHT22;6550;48.650;8.774;2024-03-17T02:56:18;9.30;99.90
12971;DHT22;6550;48.650;8.774;2024-03-17T02:58:45;9.80;99.90
12971;DHT22;6550;48.650;8.774;2024-03-17T03:01:14;9.60;99.90
12971;DHT22;6550;48.650;8.774;2024-03-17T03:03:43;9.70;99.90
12971;DHT22;6550;48.650;8.774;2024-03-17T03:06:11;9.60;99.90
12971;DHT22;6550;48.650;8.774;2024-03-17T03:08:42;9.10;99.90
12971;DHT22;6550;48.650;8.774;2024-03-17T03:11:09;9.50;99.90
12971;DHT22;6550;48.650;8.774;2024-03-17T03:13:42;9.30;99.90
12971;DHT22;6550;48.650;8.774;2024-03-17T03:16:16;9.30;99.90
12971;DHT22;6550;48.650;8.774;2024-03-17T03:18:48;9.40;99.90
12971;DHT22;6550;48.650;8.774;2024-03-17T03:21:20;9.40;99.90
12971;DHT22;6550;48.650;8.774;2024-03-17T03:23:47;9.60;99.90
12971;DHT22;6550;48.650;8.774;2024-03-17T03:28:44;9.40;99.90
12971;DHT22;6550;48.650;8.774;2024-03-17T03:31:13;9.30;99.90
12971;DHT22;6550;48.650;8.774;2024-03-17T03:33:44;9.70;99.90
12971;DHT22;6550;48.650;8.774;2024-03-17T03:36:14;9.40;99.90
12971;DHT22;6550;48.650;8.774;2024-03-17T03:38:42;9.40;99.90
12971;DHT22;6550;48.650;8.774;2024-03-17T03:41:13;9.50;99.90
12971;DHT22;6550;48.650;8.774;2024-03-17T03:43:44;9.50;99.90
12971;DHT22;6550;48.650;8.774;2024-03-17T03:46:12;9.70;99.90
12971;DHT22;6550;48.650;8.774;2024-03-17T03:48:38;9.70;99.90
12971;DHT22;6550;48.650;8.774;2024-03-17T03:51:05;9.60;99.90
12971;DHT22;6550;48.650;8.774;2024-03-17T03:53:36;9.70;99.90
12971;DHT22;6550;48.650;8.774;2024-03-17T03:56:06;9.40;99.90
12971;DHT22;6550;48.650;8.774;2024-03-17T03:58:35;9.10;99.90
12971;DHT22;6550;48.650;8.774;2024-03-17T04:01:08;9.70;99.90
12971;DHT22;6550;48.650;8.774;2024-03-17T04:03:35;9.40;99.90
12971;DHT22;6550;48.650;8.774;2024-03-17T04:06:07;9.40;99.90
12971;DHT22;6550;48.650;8.774;2024-03-17T04:08:37;9.40;99.90
12971;DHT22;6550;48.650;8.774;2024-03-17T04:11:06;9.60;99.90
12971;DHT22;6550;48.650;8.774;2024-03-17T04:13:35;9.20;99.90
12971;DHT22;6550;48.650;8.774;2024-03-17T04:16:08;9.20;99.90
12971;DHT22;6550;48.650;8.774;2024-03-17T04:18:36;10.60;99.90
12971;DHT22;6550;48.650;8.774;2024-03-17T04:21:05;9.30;99.90
12971;DHT22;6550;48.650;8.774;2024-03-17T04:23:36;9.30;99.90
12971;DHT22;6550;48.650;8.774;2024-03-17T04:26:04;9.50;99.90
12971;DHT22;6550;48.650;8.774;2024-03-17T04:28:29;9.10;99.90
12971;DHT22;6550;48.650;8.774;2024-03-17T04:31:08;8.80;99.90
12971;DHT22;6550;48.650;8.774;2024-03-17T04:33:34;9.50;99.90
12971;DHT22;6550;48.650;8.774;2024-03-17T04:36:00;9.60;99.90
12971;DHT22;6550;48.650;8.774;2024-03-17T04:38:27;8.60;99.90
12971;DHT22;6550;48.650;8.774;2024-03-17T04:40:54;9.30;99.90
12971;DHT22;6550;48.650;8.774;2024-03-17T04:43:32;9.30;99.90
12971;DHT22;6550;48.650;8.774;2024-03-17T04:46:04;9.30;99.90
12971;DHT22;6550;48.650;8.774;2024-03-17T04:48:37;8.90;99.90
12971;DHT22;6550;48.650;8.774;2024-03-17T04:51:04;9.50;99.90
12971;DHT22;6550;48.650;8.774;2024-03-17T04:53:31;9.30;99.90
12971;DHT22;6550;48.650;8.774;2024-03-17T04:56:03;9.50;99.90
12971;DHT22;6550;48.650;8.774;2024-03-17T04:58:31;9.50;99.90
12971;DHT22;6550;48.650;8.774;2024-03-17T05:00:57;9.60;99.90
12971;DHT22;6550;48.650;8.774;2024-03-17T05:03:23;8.90;99.90
12971;DHT22;6550;48.650;8.774;2024-03-17T05:05:58;9.50;99.90
12971;DHT22;6550;48.650;8.774;2024-03-17T05:08:26;9.20;99.90
12971;DHT22;6550;48.650;8.774;2024-03-17T05:10:59;9.10;99.90
12971;DHT22;6550;48.650;8.774;2024-03-17T05:13:28;9.10;99.90
12971;DHT22;6550;48.650;8.774;2024-03-17T05:18:21;9.10;99.90
12971;DHT22;6550;48.650;8.774;2024-03-17T05:21:02;9.40;99.90
12971;DHT22;6550;48.650;8.774;2024-03-17T05:23:32;9.10;99.90
12971;DHT22;6550;48.650;8.774;2024-03-17T05:25:59;9.10;99.90
12971;DHT22;6550;48.650;8.774;2024-03-17T05:28:28;9.50;99.90
12971;DHT22;6550;48.650;8.774;2024-03-17T05:30:59;9.10;99.90
12971;DHT22;6550;48.650;8.774;2024-03-17T05:35:56;9.00;99.90
12971;DHT22;6550;48.650;8.774;2024-03-17T05:38:24;9.00;99.90
12971;DHT22;6550;48.650;8.774;2024-03-17T05:41:09;8.90;99.90
12971;DHT22;6550;48.650;8.774;2024-03-17T05:43:36;9.00;99.90
12971;DHT22;6550;48.650;8.774;2024-03-17T05:46:07;9.30;99.90
12971;DHT22;6550;48.650;8.774;2024-03-17T05:48:34;9.00;99.90
12971;DHT22;6550;48.650;8.774;2024-03-17T05:51:04;8.90;99.90
12971;DHT22;6550;48.650;8.774;2024-03-17T05:53:30;9.00;99.90
12971;DHT22;6550;48.650;8.774;2024-03-17T05:56:02;8.90;99.90
12971;DHT22;6550;48.650;8.774;2024-03-17T05:58:30;9.00;99.90
12971;DHT22;6550;48.650;8.774;2024-03-17T06:00:56;9.10;99.90
12971;DHT22;6550;48.650;8.774;2024-03-17T06:03:24;9.30;99.90
12971;DHT22;6550;48.650;8.774;2024-03-17T06:05:55;9.00;99.90
12971;DHT22;6550;48.650;8.774;2024-03-17T06:08:21;9.10;99.90
12971;DHT22;6550;48.650;8.774;2024-03-17T06:10:50;8.60;99.90
12971;DHT22;6550;48.650;8.774;2024-03-17T06:13:16;9.00;99.90
12971;DHT22;6550;48.650;8.774;2024-03-17T06:15:45;9.20;99.90
12971;DHT22;6550;48.650;8.774;2024-03-17T06:18:14;9.10;99.90
12971;DHT22;6550;48.650;8.774;2024-03-17T06:20:46;9.10;99.90
12971;DHT22;6550;48.650;8.774;2024-03-17T06:23:15;9.60;99.90
12971;DHT22;6550;48.650;8.774;2024-03-17T06:25:46;9.20;99.90
12971;DHT22;6550;48.650;8.774;2024-03-17T06:28:14;11.70;99.90
12971;DHT22;6550;48.650;8.774;2024-03-17T06:30:55;9.40;99.90
12971;DHT22;6550;48.650;8.774;2024-03-17T06:33:21;9.40;99.90
12971;DHT22;6550;48.650;8.774;2024-03-17T06:35:47;9.40;99.90
12971;DHT22;6550;48.650;8.774;2024-03-17T06:38:14;9.60;99.90
12971;DHT22;6550;48.650;8.774;2024-03-17T06:40:41;9.60;99.90
12971;DHT22;6550;48.650;8.774;2024-03-17T06:43:07;9.50;99.90
12971;DHT22;6550;48.650;8.774;2024-03-17T06:45:33;9.40;99.90
12971;DHT22;6550;48.650;8.774;2024-03-17T06:48:04;10.40;99.90
12971;DHT22;6550;48.650;8.774;2024-03-17T06:50:32;9.60;99.90
12971;DHT22;6550;48.650;8.774;2024-03-17T06:53:00;9.70;99.90
12971;DHT22;6550;48.650;8.774;2024-03-17T06:55:26;9.80;99.90
12971;DHT22;6550;48.650;8.774;2024-03-17T06:57:53;9.80;99.90
12971;DHT22;6550;48.650;8.774;2024-03-17T07:02:52;9.90;99.90
12971;DHT22;6550;48.650;8.774;2024-03-17T07:05:18;10.30;99.90
12971;DHT22;6550;48.650;8.774;2024-03-17T07:07:46;10.10;99.90
12971;DHT22;6550;48.650;8.774;2024-03-17T07:10:12;10.00;99.90
12971;DHT22;6550;48.650;8.774;2024-03-17T07:12:39;10.00;99.90
12971;DHT22;6550;48.650;8.774;2024-03-17T07:15:06;10.40;99.90
12971;DHT22;6550;48.650;8.774;2024-03-17T07:17:32;10.40;99.90
12971;DHT22;6550;48.650;8.774;2024-03-17T07:19:58;10.60;99.90
12971;DHT22;6550;48.650;8.774;2024-03-17T07:22:27;10.70;99.90
12971;DHT22;6550;48.650;8.774;2024-03-17T07:24:53;10.90;99.90
12971;DHT22;6550;48.650;8.774;2024-03-17T07:27:27;10.80;99.90
12971;DHT22;6550;48.650;8.774;2024-03-17T07:29:52;10.70;99.90
12971;DHT22;6550;48.650;8.774;2024-03-17T07:32:18;10.70;99.90
12971;DHT22;6550;48.650;8.774;2024-03-17T07:34:44;11.30;99.90
12971;DHT22;6550;48.650;8.774;2024-03-17T07:37:10;11.00;99.90
12971;DHT22;6550;48.650;8.774;2024-03-17T07:39:36;11.20;99.90
12971;DHT22;6550;48.650;8.774;2024-03-17T07:42:02;11.10;99.90
12971;DHT22;6550;48.650;8.774;2024-03-17T07:47:05;11.60;99.90
12971;DHT22;6550;48.650;8.774;2024-03-17T07:49:35;11.30;99.90
12971;DHT22;6550;48.650;8.774;2024-03-17T07:52:01;11.50;99.90
12971;DHT22;6550;48.650;8.774;2024-03-17T07:54:27;11.60;99.90
12971;DHT22;6550;48.650;8.774;2024-03-17T07:56:54;11.70;99.90
12971;DHT22;6550;48.650;8.774;2024-03-17T08:01:47;11.80;99.90
12971;DHT22;6550;48.650;8.774;2024-03-17T08:04:12;12.10;99.90
12971;DHT22;6550;48.650;8.774;2024-03-17T08:06:41;12.00;99.90
12971;DHT22;6550;48.650;8.774;2024-03-17T08:09:08;12.30;99.90
12971;DHT22;6550;48.650;8.774;2024-03-17T08:11:38;12.30;99.90
12971;DHT22;6550;48.650;8.774;2024-03-17T08:14:09;11.90;99.90
12971;DHT22;6550;48.650;8.774;2024-03-17T08:19:01;12.50;99.90
12971;DHT22;6550;48.650;8.774;2024-03-17T08:21:27;14.60;99.90
12971;DHT22;6550;48.650;8.774;2024-03-17T08:23:55;12.80;99.90
12971;DHT22;6550;48.650;8.774;2024-03-17T08:26:24;12.70;99.90
12971;DHT22;6550;48.650;8.774;2024-03-17T08:28:51;14.40;99.90
12971;DHT22;6550;48.650;8.774;2024-03-17T08:38:37;13.70;99.90
12971;DHT22;6550;48.650;8.774;2024-03-17T08:41:08;13.60;99.90
12971;DHT22;6550;48.650;8.774;2024-03-17T08:43:35;13.70;99.90
12971;DHT22;6550;48.650;8.774;2024-03-17T08:46:06;13.90;99.90
12971;DHT22;6550;48.650;8.774;2024-03-17T08:48:37;13.70;99.90
12971;DHT22;6550;48.650;8.774;2024-03-17T08:51:05;14.00;99.90
12971;DHT22;6550;48.650;8.774;2024-03-17T08:53:32;14.10;99.90
12971;DHT22;6550;48.650;8.774;2024-03-17T08:56:02;14.30;99.90
12971;DHT22;6550;48.650;8.774;2024-03-17T09:00:57;15.00;99.90
12971;DHT22;6550;48.650;8.774;2024-03-17T09:03:23;14.50;99.90
12971;DHT22;6550;48.650;8.774;2024-03-17T09:05:49;14.70;99.90
12971;DHT22;6550;48.650;8.774;2024-03-17T09:08:18;14.80;99.90
12971;DHT22;6550;48.650;8.774;2024-03-17T09:10:46;14.70;99.90
12971;DHT22;6550;48.650;8.774;2024-03-17T09:13:17;14.80;99.90
12971;DHT22;6550;48.650;8.774;2024-03-17T09:18:32;14.90;99.90
12971;DHT22;6550;48.650;8.774;2024-03-17T09:25:57;15.30;99.90
12971;DHT22;6550;48.650;8.774;2024-03-17T09:28:23;15.20;99.90
12971;DHT22;6550;48.650;8.774;2024-03-17T09:30:51;15.20;99.90
12971;DHT22;6550;48.650;8.774;2024-03-17T09:33:20;15.30;99.90
12971;DHT22;6550;48.650;8.774;2024-03-17T09:35:53;15.40;99.90
12971;DHT22;6550;48.650;8.774;2024-03-17T09:40:47;15.30;99.90
12971;DHT22;6550;48.650;8.774;2024-03-17T09:45:42;16.00;99.90
12971;DHT22;6550;48.650;8.774;2024-03-17T09:48:10;15.80;99.90
12971;DHT22;6550;48.650;8.774;2024-03-17T09:50:39;16.10;99.90
12971;DHT22;6550;48.650;8.774;2024-03-17T09:53:05;16.20;99.90
12971;DHT22;6550;48.650;8.774;2024-03-17T09:55:33;16.50;99.90
12971;DHT22;6550;48.650;8.774;2024-03-17T10:00:25;16.50;99.90
12971;DHT22;6550;48.650;8.774;2024-03-17T10:02:51;16.80;99.90
12971;DHT22;6550;48.650;8.774;2024-03-17T10:05:20;17.00;99.90
12971;DHT22;6550;48.650;8.774;2024-03-17T10:10:15;17.30;99.90
12971;DHT22;6550;48.650;8.774;2024-03-17T10:15:11;17.70;99.90
12971;DHT22;6550;48.650;8.774;2024-03-17T10:17:38;17.50;99.90
12971;DHT22;6550;48.650;8.774;2024-03-17T10:20:20;18.00;99.90
12971;DHT22;6550;48.650;8.774;2024-03-17T10:23:00;18.10;99.90
12971;DHT22;6550;48.650;8.774;2024-03-17T10:25:34;18.20;99.80
12971;DHT22;6550;48.650;8.774;2024-03-17T10:28:01;18.40;99.90
12971;DHT22;6550;48.650;8.774;2024-03-17T10:30:29;18.50;99.90
12971;DHT22;6550;48.650;8.774;2024-03-17T10:33:02;18.60;99.90
12971;DHT22;6550;48.650;8.774;2024-03-17T10:35:34;18.70;99.90
12971;DHT22;6550;48.650;8.774;2024-03-17T10:38:04;18.50;99.90
12971;DHT22;6550;48.650;8.774;2024-03-17T10:40:32;18.70;99.90
12971;DHT22;6550;48.650;8.774;2024-03-17T10:43:05;18.80;99.90
12971;DHT22;6550;48.650;8.774;2024-03-17T10:45:33;18.70;99.50
12971;DHT22;6550;48.650;8.774;2024-03-17T10:48:09;18.80;99.90
12971;DHT22;6550;48.650;8.774;2024-03-17T10:50:39;18.90;99.90
12971;DHT22;6550;48.650;8.774;2024-03-17T10:53:06;18.90;99.90
12971;DHT22;6550;48.650;8.774;2024-03-17T11:00:51;18.90;98.80
12971;DHT22;6550;48.650;8.774;2024-03-17T11:03:20;19.30;99.90
12971;DHT22;6550;48.650;8.774;2024-03-17T11:05:48;19.20;99.90
12971;DHT22;6550;48.650;8.774;2024-03-17T11:08:16;19.10;98.60
12971;DHT22;6550;48.650;8.774;2024-03-17T11:10:50;19.10;98.70
12971;DHT22;6550;48.650;8.774;2024-03-17T11:13:31;18.90;99.90
12971;DHT22;6550;48.650;8.774;2024-03-17T11:15:58;19.20;99.90
12971;DHT22;6550;48.650;8.774;2024-03-17T11:18:36;19.30;98.50
12971;DHT22;6550;48.650;8.774;2024-03-17T11:21:21;19.20;99.90
12971;DHT22;6550;48.650;8.774;2024-03-17T11:24:03;19.40;99.90
12971;DHT22;6550;48.650;8.774;2024-03-17T11:26:33;19.50;99.90
12971;DHT22;6550;48.650;8.774;2024-03-17T11:29:01;19.50;99.90
12971;DHT22;6550;48.650;8.774;2024-03-17T11:31:45;19.90;99.90
12971;DHT22;6550;48.650;8.774;2024-03-17T11:34:33;19.90;99.90
12971;DHT22;6550;48.650;8.774;2024-03-17T11:37:01;19.50;98.10
12971;DHT22;6550;48.650;8.774;2024-03-17T11:39:55;19.40;98.10
12971;DHT22;6550;48.650;8.774;2024-03-17T11:42:25;19.40;98.50
12971;DHT22;6550;48.650;8.774;2024-03-17T11:45:12;19.40;98.20
12971;DHT22;6550;48.650;8.774;2024-03-17T11:47:41;19.80;99.90
12971;DHT22;6550;48.650;8.774;2024-03-17T11:50:10;19.40;98.80
12971;DHT22;6550;48.650;8.774;2024-03-17T11:52:38;19.20;99.90
12971;DHT22;6550;48.650;8.774;2024-03-17T11:55:15;19.10;99.90
12971;DHT22;6550;48.650;8.774;2024-03-17T11:57:44;19.70;99.90
12971;DHT22;6550;48.650;8.774;2024-03-17T12:00:22;19.50;99.40
12971;DHT22;6550;48.650;8.774;2024-03-17T12:02:49;19.70;99.90
12971;DHT22;6550;48.650;8.774;2024-03-17T12:05:18;19.40;99.90
12971;DHT22;6550;48.650;8.774;2024-03-17T12:07:46;19.40;99.90
12971;DHT22;6550;48.650;8.774;2024-03-17T12:10:18;19.60;98.20
12971;DHT22;6550;48.650;8.774;2024-03-17T12:12:47;19.60;98.90
12971;DHT22;6550;48.650;8.774;2024-03-17T12:15:19;19.40;99.90
12971;DHT22;6550;48.650;8.774;2024-03-17T12:17:52;19.10;99.90
12971;DHT22;6550;48.650;8.774;2024-03-17T12:20:21;19.40;97.30
12971;DHT22;6550;48.650;8.774;2024-03-17T12:22:50;19.50;99.90
12971;DHT22;6550;48.650;8.774;2024-03-17T12:25:19;19.70;99.90
12971;DHT22;6550;48.650;8.774;2024-03-17T12:27:47;19.30;99.90
12971;DHT22;6550;48.650;8.774;2024-03-17T12:30:15;19.60;99.90
12971;DHT22;6550;48.650;8.774;2024-03-17T12:32:41;19.40;99.90
12971;DHT22;6550;48.650;8.774;2024-03-17T12:35:18;19.50;99.90
12971;DHT22;6550;48.650;8.774;2024-03-17T12:37:46;19.70;99.90
12971;DHT22;6550;48.650;8.774;2024-03-17T12:40:19;19.70;99.90
12971;DHT22;6550;48.650;8.774;2024-03-17T12:42:50;19.90;99.90
12971;DHT22;6550;48.650;8.774;2024-03-17T12:45:19;20.00;97.50
12971;DHT22;6550;48.650;8.774;2024-03-17T12:47:49;20.10;99.90
12971;DHT22;6550;48.650;8.774;2024-03-17T12:50:15;20.10;97.00
12971;DHT22;6550;48.650;8.774;2024-03-17T12:52:52;20.20;96.20
12971;DHT22;6550;48.650;8.774;2024-03-17T12:55:21;20.20;99.90
12971;DHT22;6550;48.650;8.774;2024-03-17T12:58:10;20.20;95.50
12971;DHT22;6550;48.650;8.774;2024-03-17T13:01:02;20.10;99.90
12971;DHT22;6550;48.650;8.774;2024-03-17T13:03:31;20.00;99.90
12971;DHT22;6550;48.650;8.774;2024-03-17T13:06:01;20.00;99.90
12971;DHT22;6550;48.650;8.774;2024-03-17T13:08:28;20.50;99.90
12971;DHT22;6550;48.650;8.774;2024-03-17T13:13:21;20.50;99.90
12971;DHT22;6550;48.650;8.774;2024-03-17T13:15:46;20.30;95.30
12971;DHT22;6550;48.650;8.774;2024-03-17T13:20:46;20.10;96.20
12971;DHT22;6550;48.650;8.774;2024-03-17T13:23:12;20.00;99.90
12971;DHT22;6550;48.650;8.774;2024-03-17T13:25:41;19.80;99.90
12971;DHT22;6550;48.650;8.774;2024-03-17T13:28:09;19.80;99.90
12971;DHT22;6550;48.650;8.774;2024-03-17T13:30:38;20.00;99.90
12971;DHT22;6550;48.650;8.774;2024-03-17T13:33:04;20.40;99.90
12971;DHT22;6550;48.650;8.774;2024-03-17T13:35:35;19.70;99.90
12971;DHT22;6550;48.650;8.774;2024-03-17T13:38:07;20.50;99.90
12971;DHT22;6550;48.650;8.774;2024-03-17T13:40:39;19.90;99.90
12971;DHT22;6550;48.650;8.774;2024-03-17T13:43:05;20.20;99.90
12971;DHT22;6550;48.650;8.774;2024-03-17T13:45:41;20.70;99.90
12971;DHT22;6550;48.650;8.774;2024-03-17T13:48:11;20.90;99.90
12971;DHT22;6550;48.650;8.774;2024-03-17T13:50:40;20.10;99.90
12971;DHT22;6550;48.650;8.774;2024-03-17T13:53:10;20.60;99.80
12971;DHT22;6550;48.650;8.774;2024-03-17T14:00:31;20.40;94.80
12971;DHT22;6550;48.650;8.774;2024-03-17T14:05:25;20.50;95.70
12971;DHT22;6550;48.650;8.774;2024-03-17T14:07:53;20.40;99.60
12971;DHT22;6550;48.650;8.774;2024-03-17T14:10:25;20.20;99.80
12971;DHT22;6550;48.650;8.774;2024-03-17T14:12:52;20.70;99.80
12971;DHT22;6550;48.650;8.774;2024-03-17T14:15:22;20.60;95.70
12971;DHT22;6550;48.650;8.774;2024-03-17T14:17:48;20.50;95.70
12971;DHT22;6550;48.650;8.774;2024-03-17T14:20:17;20.20;99.90
12971;DHT22;6550;48.650;8.774;2024-03-17T14:22:44;20.60;99.90
12971;DHT22;6550;48.650;8.774;2024-03-17T14:25:17;20.50;99.90
12971;DHT22;6550;48.650;8.774;2024-03-17T14:27:47;20.20;99.90
12971;DHT22;6550;48.650;8.774;2024-03-17T14:30:19;20.00;99.90
12971;DHT22;6550;48.650;8.774;2024-03-17T14:32:46;20.30;99.90
12971;DHT22;6550;48.650;8.774;2024-03-17T14:35:14;20.00;95.80
12971;DHT22;6550;48.650;8.774;2024-03-17T14:37:43;20.40;99.90
12971;DHT22;6550;48.650;8.774;2024-03-17T14:40:17;19.90;99.90
12971;DHT22;6550;48.650;8.774;2024-03-17T14:42:51;20.00;95.30
12971;DHT22;6550;48.650;8.774;2024-03-17T14:45:20;19.70;99.90
12971;DHT22;6550;48.650;8.774;2024-03-17T14:47:47;19.70;99.90
12971;DHT22;6550;48.650;8.774;2024-03-17T14:50:13;19.50;99.90
12971;DHT22;6550;48.650;8.774;2024-03-17T14:52:40;19.80;96.20
12971;DHT22;6550;48.650;8.774;2024-03-17T14:55:09;19.70;96.30
12971;DHT22;6550;48.650;8.774;2024-03-17T15:00:05;19.50;95.30
12971;DHT22;6550;48.650;8.774;2024-03-17T15:02:40;19.30;96.40
12971;DHT22;6550;48.650;8.774;2024-03-17T15:05:10;19.10;99.90
12971;DHT22;6550;48.650;8.774;2024-03-17T15:10:06;19.10;96.00
12971;DHT22;6550;48.650;8.774;2024-03-17T15:15:04;18.90;96.00
12971;DHT22;6550;48.650;8.774;2024-03-17T15:17:32;18.70;99.90
12971;DHT22;6550;48.650;8.774;2024-03-17T15:22:26;18.60;95.40
12971;DHT22;6550;48.650;8.774;2024-03-17T15:24:53;18.60;99.90
12971;DHT22;6550;48.650;8.774;2024-03-17T15:29:45;18.40;95.60
12971;DHT22;6550;48.650;8.774;2024-03-17T15:32:11;18.30;96.10
12971;DHT22;6550;48.650;8.774;2024-03-17T15:34:37;18.20;95.80
12971;DHT22;6550;48.650;8.774;2024-03-17T15:37:06;18.10;95.90
12971;DHT22;6550;48.650;8.774;2024-03-17T15:39:34;18.10;95.90
12971;DHT22;6550;48.650;8.774;2024-03-17T15:42:00;18.00;96.20
12971;DHT22;6550;48.650;8.774;2024-03-17T15:44:26;18.20;99.90
12971;DHT22;6550;48.650;8.774;2024-03-17T15:49:20;17.90;96.50
12971;DHT22;6550;48.650;8.774;2024-03-17T15:51:49;18.10;99.90
12971;DHT22;6550;48.650;8.774;2024-03-17T15:54:15;17.90;96.70
12971;DHT22;6550;48.650;8.774;2024-03-17T15:56:42;17.90;99.90
12971;DHT22;6550;48.650;8.774;2024-03-17T15:59:11;17.90;99.90
12971;DHT22;6550;48.650;8.774;2024-03-17T16:01:37;17.30;99.90
12971;DHT22;6550;48.650;8.774;2024-03-17T16:04:07;17.80;99.90
12971;DHT22;6550;48.650;8.774;2024-03-17T16:08:59;17.50;99.90
12971;DHT22;6550;48.650;8.774;2024-03-17T16:11:27;17.60;96.90
12971;DHT22;6550;48.650;8.774;2024-03-17T16:13:59;17.40;99.90
12971;DHT22;6550;48.650;8.774;2024-03-17T16:16:25;17.70;99.90
12971;DHT22;6550;48.650;8.774;2024-03-17T16:18:52;17.40;97.30
12971;DHT22;6550;48.650;8.774;2024-03-17T16:21:22;17.50;99.90
12971;DHT22;6550;48.650;8.774;2024-03-17T16:26:27;17.30;99.90
12971;DHT22;6550;48.650;8.774;2024-03-17T16:28:53;17.50;99.90
12971;DHT22;6550;48.650;8.774;2024-03-17T16:31:23;17.00;99.90
12971;DHT22;6550;48.650;8.774;2024-03-17T16:36:17;16.80;99.90
12971;DHT22;6550;48.650;8.774;2024-03-17T16:41:11;16.70;99.90
12971;DHT22;6550;48.650;8.774;2024-03-17T16:44:04;16.60;99.90
12971;DHT22;6550;48.650;8.774;2024-03-17T16:49:24;17.00;99.90
12971;DHT22;6550;48.650;8.774;2024-03-17T16:51:52;16.80;99.90
12971;DHT22;6550;48.650;8.774;2024-03-17T16:54:20;16.60;99.90
12971;DHT22;6550;48.650;8.774;2024-03-17T16:59:17;16.30;99.00
12971;DHT22;6550;48.650;8.774;2024-03-17T17:01:46;16.30;99.50
12971;DHT22;6550;48.650;8.774;2024-03-17T17:04:15;16.10;99.90
12971;DHT22;6550;48.650;8.774;2024-03-17T17:09:07;16.10;99.70
12971;DHT22;6550;48.650;8.774;2024-03-17T17:11:39;16.10;99.80
12971;DHT22;6550;48.650;8.774;2024-03-17T17:14:07;16.00;99.90
12971;DHT22;6550;48.650;8.774;2024-03-17T17:21:30;16.20;99.90
12971;DHT22;6550;48.650;8.774;2024-03-17T17:23:58;15.80;99.90
12971;DHT22;6550;48.650;8.774;2024-03-17T17:26:25;15.70;99.90
12971;DHT22;6550;48.650;8.774;2024-03-17T17:29:04;15.80;99.90
12971;DHT22;6550;48.650;8.774;2024-03-17T17:31:32;15.80;99.90
12971;DHT22;6550;48.650;8.774;2024-03-17T17:36:27;15.50;99.90
12971;DHT22;6550;48.650;8.774;2024-03-17T17:38:54;15.40;99.90
12971;DHT22;6550;48.650;8.774;2024-03-17T17:43:51;15.00;99.90
12971;DHT22;6550;48.650;8.774;2024-03-17T17:46:19;15.30;99.90
12971;DHT22;6550;48.650;8.774;2024-03-17T17:48:50;15.00;99.90
12971;DHT22;6550;48.650;8.774;2024-03-17T17:51:17;15.00;99.90
12971;DHT22;6550;48.650;8.774;2024-03-17T17:53:48;15.10;99.90
12971;DHT22;6550;48.650;8.774;2024-03-17T17:56:17;15.10;99.90
12971;DHT22;6550;48.650;8.774;2024-03-17T17:58:47;15.00;99.90
12971;DHT22;6550;48.650;8.774;2024-03-17T18:01:15;14.70;99.90
12971;DHT22;6550;48.650;8.774;2024-03-17T18:03:42;14.80;99.90